Aviation Digital Data Service (ADDS)

Output produced by METARs form (0153 UTC 28 February 2015)
found at http://www.aviationweather.gov/adds/metars/
 
KCMI 272341Z 2800/2824 VRB03KT P6SM BKN250 
     FM280800 09005KT P6SM OVC100 
     FM281500 12008KT P6SM OVC050